Hovedside
METAR-TAF:

METAR-TAF

Lufthavner :

Evenes, Norge

Harstad/Narvik lufthavn

breddegrad: 68-31N, lengdegrad: 016-41E, høyde over havet: 26 m

Gjeldene værobservasjon

Denne rapporten ble laget for 21 minutter siden, klokken 04:20 UTC
Flau vind
Temperatur -5°C
Luftfuktighet 86%
Trykk 1010 hPa
Sikt 10 km eller mer
ingen skyer under 1500 m og ingen bygeskyer

METAR: ENEV 250420Z 00000KT CAVOK M05/M07 Q1010 RMK WIND 1400FT 12003KT

Tid: 06:41 (04:41 UTC)

Varsel

Denne rapporten ble laget for 2 timer og 41 minutter siden, klokken 02:00 UTC
Varsel gyldig fra 25. klokken 04 UTC til 25. klokken 12 UTC
Vind 5 kt fra skiftende retning
Sikt 10 km eller mer
ingen skyer under 1500 m og ingen bygeskyer

TAF: ENEV 250200Z 2504/2512 VRB05KT CAVOK

Værobservasjoner og værvarsel for over 4000 flyplasser (METAR- og TAF-rapporter).

Tilgjengelige stasjoner er representert av de røde og gule prikkene på kartet.

Hold musepekeren over prikken for å se navnet på stasjonen.

Klikk så for å se værobservasjoner og -varsler.

For å forandre kartet kan du klikke på den grønne knappen med svart kryss for å zoome inn, på den grønne knappen med strek for å zoome ut, eller på de grønne pilene for å se tilstøtende kart.


METAR-TAF: